createdAt,value
2018-07-22T00:01:39.620Z,36.00
2018-07-22T00:04:07.176Z,36.10
2018-07-22T00:06:34.351Z,36.20
2018-07-22T00:11:28.767Z,36.30
2018-07-22T00:13:55.963Z,36.50
2018-07-22T00:16:23.114Z,36.50
2018-07-22T00:18:50.613Z,36.60
2018-07-22T00:21:17.769Z,36.70
2018-07-22T00:23:44.907Z,36.70
2018-07-22T00:26:12.048Z,36.70
2018-07-22T00:28:39.212Z,36.80
2018-07-22T00:31:06.814Z,36.90
2018-07-22T00:33:33.973Z,36.90
2018-07-22T00:36:01.119Z,36.90
2018-07-22T00:38:28.674Z,36.90
2018-07-22T00:40:55.814Z,36.90
2018-07-22T00:43:22.982Z,36.90
2018-07-22T00:45:50.449Z,36.90
2018-07-22T00:48:17.595Z,36.90
2018-07-22T00:50:44.733Z,37.00
2018-07-22T00:53:12.321Z,37.00
2018-07-22T00:55:39.482Z,37.00
2018-07-22T00:58:06.638Z,37.10
2018-07-22T01:00:34.200Z,37.20
2018-07-22T01:03:01.354Z,37.30
2018-07-22T01:05:28.681Z,37.50
2018-07-22T01:07:55.846Z,37.70
2018-07-22T01:10:22.997Z,37.90
2018-07-22T01:12:50.188Z,38.00
2018-07-22T01:15:17.697Z,38.30
2018-07-22T01:17:44.873Z,38.50
2018-07-22T01:20:12.029Z,38.60
2018-07-22T01:22:39.721Z,38.70
2018-07-22T01:25:07.061Z,38.80
2018-07-22T01:27:34.233Z,38.90
2018-07-22T01:30:01.711Z,39.00
2018-07-22T01:32:28.904Z,39.00
2018-07-22T01:37:23.586Z,39.20
2018-07-22T01:39:50.737Z,39.30
2018-07-22T01:42:17.933Z,39.40
2018-07-22T01:47:12.894Z,39.60
2018-07-22T01:49:40.057Z,39.70
2018-07-22T01:52:07.642Z,39.70
2018-07-22T01:54:34.800Z,39.80
2018-07-22T01:57:01.962Z,39.90
2018-07-22T01:59:29.461Z,39.90
2018-07-22T02:04:23.989Z,40.10
2018-07-22T02:09:18.352Z,40.20
2018-07-22T02:11:45.797Z,40.20
2018-07-22T02:14:12.933Z,40.20
2018-07-22T02:16:40.082Z,40.20
2018-07-22T02:19:07.501Z,40.10
2018-07-22T02:21:34.657Z,40.10
2018-07-22T02:24:01.809Z,40.10
2018-07-22T02:26:28.953Z,40.20
2018-07-22T02:29:02.138Z,40.20
2018-07-22T02:31:29.314Z,40.30
2018-07-22T02:33:56.474Z,40.30
2018-07-22T02:36:23.621Z,40.20
2018-07-22T02:38:51.075Z,40.30
2018-07-22T02:41:18.241Z,40.40
2018-07-22T02:43:45.402Z,40.50
2018-07-22T02:46:12.837Z,40.60
2018-07-22T02:48:39.989Z,40.60
2018-07-22T02:51:07.157Z,40.70
2018-07-22T02:53:36.346Z,40.70
2018-07-22T02:56:03.518Z,40.80
2018-07-22T02:58:31.017Z,40.90
2018-07-22T03:03:25.672Z,41.10
2018-07-22T03:05:56.836Z,41.00
2018-07-22T03:08:23.994Z,41.00
2018-07-22T03:10:51.162Z,41.00
2018-07-22T03:13:18.607Z,41.00
2018-07-22T03:15:45.802Z,41.10
2018-07-22T03:18:12.948Z,41.10
2018-07-22T03:20:40.111Z,41.10
2018-07-22T03:23:07.285Z,41.20
2018-07-22T03:28:01.671Z,41.20
2018-07-22T03:32:55.997Z,41.20
2018-07-22T03:35:23.135Z,41.10
2018-07-22T03:37:50.569Z,41.20
2018-07-22T03:40:17.713Z,41.20
2018-07-22T03:42:44.853Z,41.20
2018-07-22T03:45:12.005Z,41.30
2018-07-22T03:47:39.161Z,41.30
2018-07-22T03:50:06.657Z,41.40
2018-07-22T03:52:33.830Z,41.50
2018-07-22T03:55:01.144Z,41.60
2018-07-22T03:57:28.566Z,41.60
2018-07-22T03:59:55.717Z,41.60
2018-07-22T04:02:22.865Z,41.70
2018-07-22T04:04:50.309Z,41.70
2018-07-22T04:07:17.442Z,41.70
2018-07-22T04:09:44.661Z,41.70
2018-07-22T04:14:39.337Z,41.90
2018-07-22T04:17:06.694Z,41.90
2018-07-22T04:19:33.870Z,41.90
2018-07-22T04:22:01.027Z,41.90
2018-07-22T04:24:28.677Z,42.00
2018-07-22T04:26:55.937Z,42.10
2018-07-22T04:29:23.073Z,42.10
2018-07-22T04:31:50.553Z,42.20
2018-07-22T04:34:17.698Z,42.30
2018-07-22T04:36:44.845Z,42.30
2018-07-22T04:39:11.993Z,42.30
2018-07-22T04:41:39.146Z,42.30
2018-07-22T04:44:06.841Z,42.40
2018-07-22T04:46:33.992Z,42.40
2018-07-22T04:49:01.125Z,42.40
2018-07-22T04:51:28.274Z,42.50
2018-07-22T04:53:55.409Z,42.90
2018-07-22T04:58:49.762Z,43.00
2018-07-22T05:01:18.972Z,42.60
2018-07-22T05:03:46.299Z,43.00
2018-07-22T05:08:40.636Z,42.70
2018-07-22T05:11:11.893Z,42.50
2018-07-22T05:13:39.033Z,42.70
2018-07-22T05:16:06.181Z,43.00
2018-07-22T05:18:33.665Z,43.20
2018-07-22T05:21:00.801Z,43.40
2018-07-22T05:23:27.937Z,43.60
2018-07-22T05:28:22.459Z,44.00
2018-07-22T05:30:49.589Z,43.80
2018-07-22T05:33:17.002Z,43.90
2018-07-22T05:35:44.145Z,43.60
2018-07-22T05:38:11.293Z,43.90
2018-07-22T05:40:38.784Z,44.00
2018-07-22T05:43:05.941Z,43.90
2018-07-22T05:45:33.084Z,43.90
2018-07-22T05:48:00.557Z,43.90
2018-07-22T05:50:27.684Z,43.80
2018-07-22T05:52:54.842Z,43.80
2018-07-22T05:55:21.997Z,43.80
2018-07-22T05:57:49.173Z,43.70
2018-07-22T06:00:16.314Z,43.60
2018-07-22T06:02:43.797Z,43.50
2018-07-22T06:05:10.959Z,43.40
2018-07-22T06:07:38.149Z,43.50
2018-07-22T06:10:09.974Z,43.40
2018-07-22T06:12:37.125Z,43.30
2018-07-22T06:15:05.817Z,43.10
2018-07-22T06:17:32.959Z,43.00
2018-07-22T06:20:00.098Z,43.00
2018-07-22T06:22:27.246Z,43.00
2018-07-22T06:27:21.908Z,42.80
2018-07-22T06:29:49.098Z,42.70
2018-07-22T06:32:16.621Z,42.60
2018-07-22T06:34:43.782Z,42.50
2018-07-22T06:37:10.933Z,42.30
2018-07-22T06:39:40.441Z,42.20
2018-07-22T06:42:07.587Z,42.00
2018-07-22T06:44:34.753Z,41.50
2018-07-22T06:47:05.905Z,41.30
2018-07-22T06:49:33.115Z,41.10
2018-07-22T06:54:27.557Z,41.00
2018-07-22T06:56:56.686Z,41.00
2018-07-22T06:59:23.823Z,40.90
2018-07-22T07:01:51.078Z,40.90
2018-07-22T07:04:22.841Z,40.70
2018-07-22T07:06:49.974Z,40.70
2018-07-22T07:09:17.112Z,40.00
2018-07-22T07:14:11.429Z,40.00
2018-07-22T07:21:33.198Z,39.20
2018-07-22T07:26:27.725Z,39.20
2018-07-22T07:28:54.875Z,39.30
2018-07-22T07:31:22.149Z,39.40
2018-07-22T07:33:49.327Z,39.40
2018-07-22T07:36:16.893Z,39.50
2018-07-22T07:38:44.074Z,39.60
2018-07-22T07:41:11.230Z,39.70
2018-07-22T07:43:38.662Z,39.70
2018-07-22T07:46:05.819Z,39.90
2018-07-22T07:48:32.973Z,40.00
2018-07-22T07:51:00.117Z,40.00
2018-07-22T07:53:27.279Z,40.10
2018-07-22T07:55:54.462Z,40.10
2018-07-22T07:58:21.903Z,40.20
2018-07-22T08:00:49.033Z,40.20
2018-07-22T08:03:16.165Z,40.00
2018-07-22T08:08:10.493Z,39.70
2018-07-22T08:10:37.622Z,39.70
2018-07-22T08:13:05.097Z,39.70
2018-07-22T08:17:59.413Z,39.60
2018-07-22T08:20:26.557Z,39.70
2018-07-22T08:25:21.414Z,39.90
2018-07-22T08:27:48.545Z,39.90
2018-07-22T08:32:45.223Z,39.80
2018-07-22T08:35:12.353Z,40.20
2018-07-22T08:37:39.773Z,39.50
2018-07-22T08:40:06.893Z,39.40
2018-07-22T08:42:34.042Z,39.40
2018-07-22T08:47:28.541Z,39.40
2018-07-22T08:52:22.869Z,39.40
2018-07-22T08:57:17.207Z,39.40
2018-07-22T08:59:44.379Z,39.20
2018-07-22T09:04:38.826Z,39.00
2018-07-22T09:07:05.953Z,38.80
2018-07-22T09:09:33.093Z,38.60
2018-07-22T09:12:00.266Z,38.60
2018-07-22T09:14:27.422Z,38.60
2018-07-22T09:16:54.565Z,38.40
2018-07-22T09:19:21.741Z,38.40
2018-07-22T09:21:48.923Z,38.50
2018-07-22T09:26:43.243Z,38.40
2018-07-22T09:31:37.577Z,38.30
2018-07-22T09:34:04.980Z,38.10
2018-07-22T09:36:32.136Z,38.00
2018-07-22T09:38:59.265Z,37.80
2018-07-22T09:41:26.735Z,37.50
2018-07-22T09:43:53.865Z,37.40
2018-07-22T09:46:21.021Z,37.20
2018-07-22T09:48:52.193Z,36.90
2018-07-22T09:51:19.345Z,36.80
2018-07-22T09:53:46.511Z,36.90
2018-07-22T09:56:13.659Z,36.90
2018-07-22T09:58:40.812Z,37.30
2018-07-22T10:01:07.965Z,37.10
2018-07-22T10:03:35.133Z,37.10
2018-07-22T10:06:02.258Z,36.80
2018-07-22T10:08:29.395Z,36.70
2018-07-22T10:10:57.816Z,36.50
2018-07-22T10:13:24.968Z,36.10
2018-07-22T10:15:52.137Z,35.60
2018-07-22T10:18:19.278Z,35.20
2018-07-22T10:20:46.409Z,34.80
2018-07-22T10:23:13.559Z,34.70
2018-07-22T10:25:41.058Z,34.40
2018-07-22T10:28:08.201Z,34.20
2018-07-22T10:30:35.352Z,34.00
2018-07-22T10:33:02.502Z,34.00
2018-07-22T10:35:29.667Z,33.90
2018-07-22T10:37:56.810Z,34.00
2018-07-22T10:40:26.041Z,33.80
2018-07-22T10:42:53.189Z,33.70
2018-07-22T10:45:20.321Z,33.60
2018-07-22T10:47:47.467Z,33.70
2018-07-22T10:50:14.619Z,33.50
2018-07-22T10:55:09.253Z,33.40
2018-07-22T10:57:36.426Z,33.20
2018-07-22T11:00:05.138Z,33.00
2018-07-22T11:02:32.399Z,33.00
2018-07-22T11:04:59.481Z,32.90
2018-07-22T11:07:26.893Z,32.80
2018-07-22T11:09:54.057Z,32.50
2018-07-22T11:12:21.333Z,32.50
2018-07-22T11:14:48.600Z,32.40
2018-07-22T11:17:15.693Z,32.30
2018-07-22T11:19:48.913Z,32.30
2018-07-22T11:22:16.094Z,32.40
2018-07-22T11:24:43.391Z,32.30
2018-07-22T11:29:37.694Z,31.80
2018-07-22T11:34:32.469Z,31.60
2018-07-22T11:36:59.622Z,31.70
2018-07-22T11:39:27.177Z,31.90
2018-07-22T11:41:54.320Z,32.00
2018-07-22T11:44:21.555Z,32.10
2018-07-22T11:46:49.061Z,32.30
2018-07-22T11:49:16.189Z,32.50
2018-07-22T11:51:43.386Z,32.60
2018-07-22T11:54:10.545Z,32.80
2018-07-22T11:56:38.088Z,33.00
2018-07-22T11:59:05.345Z,33.20
2018-07-22T12:01:32.501Z,33.30
2018-07-22T12:04:01.807Z,33.50
2018-07-22T12:06:28.961Z,34.10
2018-07-22T12:08:56.102Z,34.20
2018-07-22T12:11:23.534Z,34.70
2018-07-22T12:16:17.892Z,34.40
2018-07-22T12:18:45.029Z,34.70
2018-07-22T12:21:12.226Z,34.60
2018-07-22T12:23:39.357Z,34.70
2018-07-22T12:26:06.823Z,34.70
2018-07-22T12:28:33.949Z,34.70
2018-07-22T12:31:01.131Z,34.60
2018-07-22T12:33:28.557Z,34.70
2018-07-22T12:35:55.702Z,34.80
2018-07-22T12:40:54.355Z,34.80
2018-07-22T12:43:21.510Z,34.90
2018-07-22T12:45:48.665Z,34.60
2018-07-22T12:48:17.873Z,34.40
2018-07-22T12:50:45.022Z,34.40
2018-07-22T12:53:12.165Z,34.30
2018-07-22T12:55:39.321Z,34.20
2018-07-22T12:58:06.575Z,34.00
2018-07-22T13:00:33.929Z,34.00
2018-07-22T13:03:01.071Z,33.70
2018-07-22T13:05:28.207Z,33.90
2018-07-22T13:07:55.359Z,33.30
2018-07-22T13:10:22.498Z,33.10
2018-07-22T13:12:49.680Z,33.40
2018-07-22T13:17:50.029Z,33.30
2018-07-22T13:22:44.497Z,33.80
2018-07-22T13:25:11.633Z,34.00
2018-07-22T13:27:38.823Z,34.10
2018-07-22T13:30:10.265Z,34.30
2018-07-22T13:32:37.409Z,34.50
2018-07-22T13:35:04.829Z,34.70
2018-07-22T13:42:26.612Z,34.90
2018-07-22T13:44:53.790Z,34.90
2018-07-22T13:47:20.946Z,35.00
2018-07-22T13:49:48.077Z,35.20
2018-07-22T13:54:42.386Z,35.50
2018-07-22T13:57:09.517Z,35.70
2018-07-22T13:59:36.659Z,35.60
2018-07-22T14:02:03.803Z,35.60
2018-07-22T14:04:30.954Z,35.80
2018-07-22T14:06:58.405Z,35.60
2018-07-22T14:09:25.537Z,35.40
2018-07-22T14:11:53.700Z,35.30
2018-07-22T14:14:21.205Z,35.30
2018-07-22T14:16:48.357Z,35.40
2018-07-22T14:19:15.525Z,35.60
2018-07-22T14:21:42.710Z,35.50
2018-07-22T14:24:09.834Z,35.50
2018-07-22T14:26:36.992Z,35.70
2018-07-22T14:29:04.442Z,35.70
2018-07-22T14:31:31.624Z,35.90
2018-07-22T14:33:58.757Z,35.90
2018-07-22T14:36:26.190Z,35.60
2018-07-22T14:38:53.329Z,35.90
2018-07-22T14:41:20.461Z,35.90
2018-07-22T14:43:47.777Z,36.10
2018-07-22T14:46:14.913Z,36.10
2018-07-22T14:48:42.049Z,35.80
2018-07-22T14:53:36.876Z,35.60
2018-07-22T14:56:04.853Z,35.80
2018-07-22T15:01:01.221Z,35.60
2018-07-22T15:03:28.357Z,36.20
2018-07-22T15:08:22.692Z,35.60
2018-07-22T15:10:53.861Z,35.90
2018-07-22T15:13:20.992Z,35.90
2018-07-22T15:15:48.138Z,36.00
2018-07-22T15:18:15.271Z,36.10
2018-07-22T15:20:42.417Z,36.00
2018-07-22T15:23:09.662Z,35.90
2018-07-22T15:25:36.798Z,36.00
2018-07-22T15:28:03.929Z,36.10
2018-07-22T15:30:31.061Z,36.50
2018-07-22T15:35:25.385Z,36.20
2018-07-22T15:37:52.673Z,36.20
2018-07-22T15:40:19.825Z,36.30
2018-07-22T15:42:47.040Z,36.50
2018-07-22T15:47:41.358Z,36.20
2018-07-22T15:50:08.502Z,36.30
2018-07-22T15:52:35.661Z,36.40
2018-07-22T15:57:30.068Z,36.30
2018-07-22T16:04:51.649Z,36.40
2018-07-22T16:07:18.794Z,36.60
2018-07-22T16:12:13.541Z,36.40
2018-07-22T16:14:40.691Z,36.50
2018-07-22T16:17:07.825Z,36.40
2018-07-22T16:22:02.179Z,36.60
2018-07-22T16:24:29.319Z,36.50
2018-07-22T16:26:56.497Z,36.70
2018-07-22T16:29:23.647Z,36.70
2018-07-22T16:31:50.805Z,36.60
2018-07-22T16:34:17.969Z,36.50
2018-07-22T16:36:45.093Z,36.70
2018-07-22T16:39:12.226Z,36.50
2018-07-22T16:44:06.970Z,36.40
2018-07-22T16:46:34.217Z,36.40
2018-07-22T16:49:01.353Z,36.40
2018-07-22T16:53:55.705Z,36.50
2018-07-22T16:56:24.917Z,36.60
2018-07-22T16:58:52.066Z,36.60
2018-07-22T17:01:19.480Z,36.70
2018-07-22T17:06:13.818Z,36.70
2018-07-22T17:08:40.953Z,36.80
2018-07-22T17:13:35.279Z,36.80
2018-07-22T17:16:02.433Z,36.70
2018-07-22T17:18:29.625Z,36.90
2018-07-22T17:20:56.777Z,37.00
2018-07-22T17:23:23.934Z,37.00
2018-07-22T17:25:51.065Z,37.10
2018-07-22T17:28:18.240Z,37.00
2018-07-22T17:30:45.377Z,37.00
2018-07-22T17:33:12.533Z,36.90
2018-07-22T17:35:39.681Z,36.90
2018-07-22T17:38:06.817Z,37.00
2018-07-22T17:40:33.953Z,36.90
2018-07-22T17:43:01.101Z,37.30
2018-07-22T17:45:28.231Z,36.90
2018-07-22T17:47:59.488Z,36.90
2018-07-22T17:50:26.615Z,37.00
2018-07-22T17:52:53.749Z,37.20
2018-07-22T17:57:48.057Z,37.10
2018-07-22T18:05:11.728Z,37.00
2018-07-22T18:07:38.888Z,37.10
2018-07-22T18:10:06.069Z,37.20
2018-07-22T18:15:00.446Z,37.00
2018-07-22T18:17:27.629Z,37.00
2018-07-22T18:19:54.789Z,37.00
2018-07-22T18:24:49.198Z,37.20
2018-07-22T18:29:43.577Z,37.40
2018-07-22T18:32:10.805Z,37.20
2018-07-22T18:34:37.988Z,37.50
2018-07-22T18:37:05.200Z,37.30
2018-07-22T18:39:32.362Z,37.30
2018-07-22T18:41:59.521Z,37.40
2018-07-22T18:44:26.678Z,37.40
2018-07-22T18:46:53.877Z,37.40
2018-07-22T18:49:21.052Z,37.40
2018-07-22T18:54:15.853Z,37.60
2018-07-22T18:56:43.027Z,37.50
2018-07-22T18:59:10.213Z,37.50
2018-07-22T19:01:37.401Z,37.70
2018-07-22T19:04:04.611Z,37.80
2018-07-22T19:06:32.149Z,38.00
2018-07-22T19:08:59.339Z,38.10
2018-07-22T19:13:54.226Z,38.40
2018-07-22T19:16:21.409Z,38.20
2018-07-22T19:18:48.600Z,38.20
2018-07-22T19:21:16.109Z,38.20
2018-07-22T19:23:43.317Z,38.20
2018-07-22T19:26:10.519Z,38.20
2018-07-22T19:28:37.718Z,38.20
2018-07-22T19:31:04.930Z,38.40
2018-07-22T19:33:32.148Z,38.40
2018-07-22T19:35:59.753Z,38.80
2018-07-22T19:38:26.943Z,38.50
2018-07-22T19:40:54.136Z,38.50
2018-07-22T19:43:21.400Z,38.50
2018-07-22T19:45:48.590Z,38.60
2018-07-22T19:50:43.068Z,38.60
2018-07-22T19:53:10.286Z,38.80
2018-07-22T19:55:37.677Z,38.80
2018-07-22T19:58:04.900Z,38.70
2018-07-22T20:00:32.202Z,38.80
2018-07-22T20:02:59.438Z,38.80
2018-07-22T20:05:26.577Z,38.80
2018-07-22T20:07:53.761Z,38.90
2018-07-22T20:10:20.922Z,38.90
2018-07-22T20:12:50.153Z,39.00
2018-07-22T20:15:17.697Z,39.10
2018-07-22T20:17:44.909Z,39.20
2018-07-22T20:20:12.615Z,39.20
2018-07-22T20:22:39.980Z,39.30
2018-07-22T20:25:07.231Z,39.40
2018-07-22T20:27:34.401Z,39.60
2018-07-22T20:30:01.578Z,39.60
2018-07-22T20:34:56.196Z,39.60
2018-07-22T20:37:23.507Z,39.50
2018-07-22T20:39:50.681Z,39.40
2018-07-22T20:42:18.117Z,39.40
2018-07-22T20:44:45.298Z,39.40
2018-07-22T20:47:12.520Z,39.50
2018-07-22T20:49:39.684Z,39.60
2018-07-22T20:52:06.893Z,39.50
2018-07-22T20:54:34.113Z,39.50
2018-07-22T20:57:01.611Z,39.50
2018-07-22T20:59:28.813Z,39.50
2018-07-22T21:01:56.226Z,39.50
2018-07-22T21:04:23.897Z,39.50
2018-07-22T21:06:51.097Z,39.50
2018-07-22T21:09:18.305Z,39.70
2018-07-22T21:13:01.680Z,39.50
2018-07-22T21:15:28.852Z,39.50
2018-07-22T21:17:56.041Z,39.40
2018-07-22T21:20:23.513Z,39.40
2018-07-22T21:22:50.709Z,39.40
2018-07-22T21:25:18.173Z,39.50
2018-07-22T21:27:49.662Z,39.50
2018-07-22T21:30:16.849Z,39.50
2018-07-22T21:32:44.039Z,39.50
2018-07-22T21:35:11.213Z,39.40
2018-07-22T21:37:38.846Z,39.40
2018-07-22T21:40:06.221Z,39.30
2018-07-22T21:42:33.403Z,39.20
2018-07-22T21:45:01.149Z,39.20
2018-07-22T21:47:28.362Z,39.20
2018-07-22T21:52:23.481Z,39.10
2018-07-22T21:57:18.268Z,39.10
2018-07-22T21:59:45.645Z,39.10
2018-07-22T22:04:40.061Z,39.10
2018-07-22T22:07:07.242Z,39.00
2018-07-22T22:12:01.687Z,39.20
2018-07-22T22:14:28.854Z,39.20
2018-07-22T22:16:56.034Z,39.20
2018-07-22T22:19:23.219Z,39.30
2018-07-22T22:21:50.754Z,39.30
2018-07-22T22:24:18.092Z,39.30
2018-07-22T22:26:45.273Z,39.40
2018-07-22T22:29:16.628Z,39.40
2018-07-22T22:31:43.805Z,39.40
2018-07-22T22:36:38.517Z,39.50
2018-07-22T22:39:07.765Z,39.50
2018-07-22T22:41:34.948Z,39.60
2018-07-22T22:44:02.141Z,39.70
2018-07-22T22:48:56.709Z,39.60
2018-07-22T22:51:24.226Z,39.60
2018-07-22T22:53:51.530Z,39.60
2018-07-22T22:56:18.709Z,39.70
2018-07-22T22:59:01.625Z,39.70
2018-07-22T23:01:28.828Z,39.70
2018-07-22T23:03:56.422Z,39.60
2018-07-22T23:06:23.915Z,39.70
2018-07-22T23:08:51.097Z,39.70
2018-07-22T23:13:45.506Z,39.90
2018-07-22T23:16:12.701Z,39.80
2018-07-22T23:18:39.872Z,39.80
2018-07-22T23:21:07.460Z,39.80
2018-07-22T23:23:34.634Z,39.90
2018-07-22T23:26:01.799Z,39.90
2018-07-22T23:30:56.817Z,39.90
2018-07-22T23:35:51.215Z,40.00
2018-07-22T23:38:18.407Z,40.00
2018-07-22T23:40:45.577Z,40.00
2018-07-22T23:43:13.188Z,40.00
2018-07-22T23:45:40.352Z,40.00
2018-07-22T23:50:35.225Z,40.00
2018-07-22T23:53:02.417Z,40.00
2018-07-22T23:55:29.623Z,40.00
2018-07-22T23:57:56.882Z,40.00
